Etusivu
METAR-TAF:

METAR-TAF

Lentoasemat :

Pohnpei, Mikronesia

Leveyspiiri: 06-59N, Pituuspiiri: 158-12E, korkeus merenpinnasta: 2 m

Tämänhetkinen sää

Tämä raportti tehtiin 58 minuuttia sitten, kello 22.51 UTC
Tuuli 9 kn idästä/koillisesta
Lämpötila 29°C
Kosteus 79%
Ilmanpaine 1008 hPa
Näkyvyys: 24.1 km
Hajonneita pilviä 1800 ft:n korkeudessa, Kasvava cumulus-pilvi.
Hajonneita pilviä 13000 ft:n korkeudessa
Pilvistä 30000 ft:n korkeudessa

METAR: PTPN 182251Z 06009KT 15SM BKN018TCU BKN130 OVC300 29/25 A2978 RMK TCU SE-W

Aika: 10:49 (23:49 UTC)

Sääennuste

Tämä raportti tehtiin 19 minuuttia sitten, kello 23.30 UTC
Ennuste voimassa 19. päivästä klo 00 UTC - 19. päivään klo 24 UTC
Tuuli 10 kn idästä/koillisesta
Näkyvyys: 10 km
Hajanaisia pilviä 1800 ft:n korkeudessa
Hajanaisia pilviä 3000 ft:n korkeudessa
sadekuuroja näköpiirissä

TAF: PTPN 182330Z 1900/1924 07010KT P6SM VCSH SCT018 SCT030

Säähavainnot ja -ennusteet yli 4000 lentoasemalta (METAR- ja TAF-raportit).

Käytössä olevat sääasemat on merkitty karttaan keltaisilla ja punaisilla pisteillä.

Aseta hiiri pisteen päälle nähdäksesi sääaseman nimen.

Klikkaa sitten nähdäksesi säähavainnot ja -ennusteet.

Kartan vaihtaminen: klikkaa mustalla rastilla varustettuja vihreitä pisteitä, niin voit zoomata sisään; viivalla varustettua vihreää pistettä, niin voit zoomata ulos tai vihreitä nuolia, niin pääset viereisille kartoille.


METAR-TAF: